sensor_id;sensor_type;location;lat;lon;timestamp;pressure;altitude;pressure_sealevel;temperature;humidity
76201;BME280;64981;52.930;9.266;2023-07-20T00:02:23;100997.78;;;15.27;72.48
76201;BME280;64981;52.930;9.266;2023-07-20T00:04:49;100995.84;;;15.36;71.97
76201;BME280;64981;52.930;9.266;2023-07-20T00:07:15;100972.94;;;15.20;71.82
76201;BME280;64981;52.930;9.266;2023-07-20T00:09:40;100993.75;;;15.31;72.14
76201;BME280;64981;52.930;9.266;2023-07-20T00:12:07;100991.78;;;15.40;71.78
76201;BME280;64981;52.930;9.266;2023-07-20T00:14:33;100991.72;;;15.33;72.28
76201;BME280;64981;52.930;9.266;2023-07-20T00:16:58;100988.88;;;15.35;72.70
76201;BME280;64981;52.930;9.266;2023-07-20T00:19:25;100973.22;;;15.25;72.79
76201;BME280;64981;52.930;9.266;2023-07-20T00:21:52;100989.88;;;15.34;72.14
76201;BME280;64981;52.930;9.266;2023-07-20T00:24:18;100986.97;;;15.29;71.95
76201;BME280;64981;52.930;9.266;2023-07-20T00:26:44;100986.97;;;15.29;71.83
76201;BME280;64981;52.930;9.266;2023-07-20T00:29:09;100983.84;;;15.25;71.92
76201;BME280;64981;52.930;9.266;2023-07-20T00:31:35;100990.63;;;15.28;72.29
76201;BME280;64981;52.930;9.266;2023-07-20T00:34:04;100981.00;;;15.27;72.13
76201;BME280;64981;52.930;9.266;2023-07-20T00:36:30;100988.81;;;15.28;72.22
76201;BME280;64981;52.930;9.266;2023-07-20T00:38:55;100983.84;;;15.25;72.13
76201;BME280;64981;52.930;9.266;2023-07-20T00:41:21;100975.88;;;15.25;72.01
76201;BME280;64981;52.930;9.266;2023-07-20T00:43:47;100972.25;;;15.33;71.61
76201;BME280;64981;52.930;9.266;2023-07-20T00:46:13;100973.38;;;15.24;72.08
76201;BME280;64981;52.930;9.266;2023-07-20T00:48:40;100967.44;;;15.22;72.18
76201;BME280;64981;52.930;9.266;2023-07-20T00:51:07;100971.66;;;15.16;72.46
76201;BME280;64981;52.930;9.266;2023-07-20T00:53:32;100954.41;;;14.97;72.54
76201;BME280;64981;52.930;9.266;2023-07-20T00:55:58;100978.91;;;15.07;72.55
76201;BME280;64981;52.930;9.266;2023-07-20T00:58:24;100974.22;;;14.95;72.65
76201;BME280;64981;52.930;9.266;2023-07-20T01:00:51;100974.03;;;14.96;73.08
76201;BME280;64981;52.930;9.266;2023-07-20T01:03:17;100979.00;;;14.99;72.96
76201;BME280;64981;52.930;9.266;2023-07-20T01:05:54;100971.38;;;14.96;73.06
76201;BME280;64981;52.930;9.266;2023-07-20T01:08:36;100978.06;;;14.92;72.79
76201;BME280;64981;52.930;9.266;2023-07-20T01:11:14;100988.91;;;14.91;73.64
76201;BME280;64981;52.930;9.266;2023-07-20T01:13:43;100972.41;;;14.81;73.75
76201;BME280;64981;52.930;9.266;2023-07-20T01:16:09;100983.50;;;14.84;73.94
76201;BME280;64981;52.930;9.266;2023-07-20T01:18:34;100978.34;;;14.83;74.02
76201;BME280;64981;52.930;9.266;2023-07-20T01:21:08;100985.69;;;14.81;74.15
76201;BME280;64981;52.930;9.266;2023-07-20T01:29:55;100982.41;;;14.79;74.13
76201;BME280;64981;52.930;9.266;2023-07-20T01:32:29;100971.47;;;14.74;74.11
76201;BME280;64981;52.930;9.266;2023-07-20T01:34:58;100973.41;;;14.80;74.35
76201;BME280;64981;52.930;9.266;2023-07-20T01:37:26;100969.44;;;14.76;74.39
76201;BME280;64981;52.930;9.266;2023-07-20T01:39:55;100956.88;;;14.70;74.33
76201;BME280;64981;52.930;9.266;2023-07-20T01:42:22;100970.28;;;14.76;74.92
76201;BME280;64981;52.930;9.266;2023-07-20T01:44:51;100971.75;;;14.79;74.80
76201;BME280;64981;52.930;9.266;2023-07-20T01:47:18;100970.28;;;14.76;74.92
76201;BME280;64981;52.930;9.266;2023-07-20T01:49:43;100968.44;;;14.77;74.66
76201;BME280;64981;52.930;9.266;2023-07-20T01:52:09;100975.06;;;14.81;74.62
76201;BME280;64981;52.930;9.266;2023-07-20T01:54:34;100978.72;;;14.80;74.68
76201;BME280;64981;52.930;9.266;2023-07-20T01:57:00;100978.91;;;14.78;75.15
76201;BME280;64981;52.930;9.266;2023-07-20T01:59:25;100980.38;;;14.81;74.76
76201;BME280;64981;52.930;9.266;2023-07-20T02:01:52;100977.50;;;14.82;74.80
76201;BME280;64981;52.930;9.266;2023-07-20T02:04:18;100969.75;;;14.81;74.71
76201;BME280;64981;52.930;9.266;2023-07-20T02:06:43;100975.69;;;14.83;74.90
76201;BME280;64981;52.930;9.266;2023-07-20T02:09:09;100969.00;;;14.87;74.54
76201;BME280;64981;52.930;9.266;2023-07-20T02:11:34;100976.25;;;14.93;74.43
76201;BME280;64981;52.930;9.266;2023-07-20T02:14:00;100962.47;;;14.89;74.32
76201;BME280;64981;52.930;9.266;2023-07-20T02:16:26;100975.25;;;14.94;74.37
76201;BME280;64981;52.930;9.266;2023-07-20T02:18:52;100978.53;;;14.96;74.17
76201;BME280;64981;52.930;9.266;2023-07-20T02:21:18;100977.78;;;15.02;74.08
76201;BME280;64981;52.930;9.266;2023-07-20T02:23:44;100967.25;;;14.94;74.35
76201;BME280;64981;52.930;9.266;2023-07-20T02:26:09;100976.78;;;15.03;74.04
76201;BME280;64981;52.930;9.266;2023-07-20T02:28:35;100966.72;;;15.13;73.68
76201;BME280;64981;52.930;9.266;2023-07-20T02:31:00;100977.72;;;15.10;74.03
76201;BME280;64981;52.930;9.266;2023-07-20T02:33:26;100975.25;;;15.08;74.25
76201;BME280;64981;52.930;9.266;2023-07-20T02:35:52;100973.97;;;15.04;74.48
76201;BME280;64981;52.930;9.266;2023-07-20T02:38:17;100947.53;;;14.88;74.74
76201;BME280;64981;52.930;9.266;2023-07-20T02:40:43;100971.75;;;15.08;74.71
76201;BME280;64981;52.930;9.266;2023-07-20T02:43:08;100979.94;;;15.06;74.69
76201;BME280;64981;52.930;9.266;2023-07-20T02:45:40;100979.09;;;15.06;74.76
76201;BME280;64981;52.930;9.266;2023-07-20T02:48:05;100986.88;;;15.07;74.79
76201;BME280;64981;52.930;9.266;2023-07-20T02:50:33;100979.56;;;15.09;74.75
76201;BME280;64981;52.930;9.266;2023-07-20T02:53:00;100987.34;;;15.11;74.89
76201;BME280;64981;52.930;9.266;2023-07-20T02:55:25;100953.13;;;14.93;74.73
76201;BME280;64981;52.930;9.266;2023-07-20T02:57:51;100985.34;;;15.13;74.68
76201;BME280;64981;52.930;9.266;2023-07-20T03:00:16;100982.59;;;15.06;75.28
76201;BME280;64981;52.930;9.266;2023-07-20T03:02:45;100983.47;;;15.14;74.81
76201;BME280;64981;52.930;9.266;2023-07-20T03:05:18;100987.72;;;15.08;75.23
76201;BME280;64981;52.930;9.266;2023-07-20T03:07:43;100986.34;;;15.12;75.24
76201;BME280;64981;52.930;9.266;2023-07-20T03:10:10;100992.03;;;15.09;75.45
76201;BME280;64981;52.930;9.266;2023-07-20T03:12:36;100996.78;;;15.14;75.37
76201;BME280;64981;52.930;9.266;2023-07-20T03:15:03;100994.78;;;15.16;75.50
76201;BME280;64981;52.930;9.266;2023-07-20T03:17:28;100984.50;;;15.13;75.17
76201;BME280;64981;52.930;9.266;2023-07-20T03:19:54;100995.63;;;15.16;75.51
76201;BME280;64981;52.930;9.266;2023-07-20T03:22:19;100995.03;;;15.21;75.44
76201;BME280;64981;52.930;9.266;2023-07-20T03:24:46;100999.00;;;15.25;75.27
76201;BME280;64981;52.930;9.266;2023-07-20T03:27:12;100991.75;;;15.19;75.79
76201;BME280;64981;52.930;9.266;2023-07-20T03:29:38;100962.66;;;15.02;75.84
76201;BME280;64981;52.930;9.266;2023-07-20T03:32:04;100993.13;;;15.15;76.28
76201;BME280;64981;52.930;9.266;2023-07-20T03:34:29;100992.22;;;15.07;76.75
76201;BME280;64981;52.930;9.266;2023-07-20T03:36:55;100994.69;;;15.09;76.74
76201;BME280;64981;52.930;9.266;2023-07-20T03:39:22;100981.75;;;15.06;76.47
76201;BME280;64981;52.930;9.266;2023-07-20T03:41:48;101003.31;;;15.11;76.79
76201;BME280;64981;52.930;9.266;2023-07-20T03:44:13;101013.41;;;15.16;76.76
76201;BME280;64981;52.930;9.266;2023-07-20T03:46:39;101005.59;;;15.14;76.63
76201;BME280;64981;52.930;9.266;2023-07-20T03:49:04;101006.16;;;15.09;77.03
76201;BME280;64981;52.930;9.266;2023-07-20T03:51:32;100985.69;;;14.81;77.75
76201;BME280;64981;52.930;9.266;2023-07-20T03:53:57;101011.50;;;15.09;77.07
76201;BME280;64981;52.930;9.266;2023-07-20T03:56:23;101007.38;;;15.07;77.10
76201;BME280;64981;52.930;9.266;2023-07-20T03:58:49;101013.19;;;15.02;76.80
76201;BME280;64981;52.930;9.266;2023-07-20T04:01:15;101008.53;;;15.04;76.71
76201;BME280;64981;52.930;9.266;2023-07-20T04:03:42;101016.91;;;15.16;76.08
76201;BME280;64981;52.930;9.266;2023-07-20T04:06:08;101021.94;;;15.11;76.42
76201;BME280;64981;52.930;9.266;2023-07-20T04:08:35;101021.69;;;15.06;76.57
76201;BME280;64981;52.930;9.266;2023-07-20T04:11:02;101028.66;;;15.07;76.60
76201;BME280;64981;52.930;9.266;2023-07-20T04:13:28;101028.28;;;15.10;76.30
76201;BME280;64981;52.930;9.266;2023-07-20T04:15:54;101028.81;;;15.05;76.57
76201;BME280;64981;52.930;9.266;2023-07-20T04:18:20;101021.84;;;15.04;76.47
76201;BME280;64981;52.930;9.266;2023-07-20T04:20:46;101011.06;;;14.98;76.37
76201;BME280;64981;52.930;9.266;2023-07-20T04:23:12;101011.38;;;15.03;76.21
76201;BME280;64981;52.930;9.266;2023-07-20T04:25:40;101021.69;;;15.06;76.12
76201;BME280;64981;52.930;9.266;2023-07-20T04:28:06;101024.59;;;15.11;75.98
76201;BME280;64981;52.930;9.266;2023-07-20T04:30:35;101024.97;;;15.08;76.09
76201;BME280;64981;52.930;9.266;2023-07-20T04:33:02;101025.66;;;15.02;76.23
76201;BME280;64981;52.930;9.266;2023-07-20T04:35:45;101034.16;;;15.05;76.39
76201;BME280;64981;52.930;9.266;2023-07-20T04:38:11;101028.16;;;15.03;76.28
76201;BME280;64981;52.930;9.266;2023-07-20T04:40:37;101033.50;;;15.18;75.98
76201;BME280;64981;52.930;9.266;2023-07-20T04:43:02;101026.72;;;15.16;75.68
76201;BME280;64981;52.930;9.266;2023-07-20T04:45:28;101031.66;;;15.19;75.85
76201;BME280;64981;52.930;9.266;2023-07-20T04:47:54;101037.00;;;15.19;76.06
76201;BME280;64981;52.930;9.266;2023-07-20T04:50:19;100999.81;;;14.96;76.02
76201;BME280;64981;52.930;9.266;2023-07-20T04:52:45;101037.81;;;15.19;76.00
76201;BME280;64981;52.930;9.266;2023-07-20T04:55:11;101008.16;;;15.07;75.87
76201;BME280;64981;52.930;9.266;2023-07-20T04:57:37;101035.88;;;15.28;75.60
76201;BME280;64981;52.930;9.266;2023-07-20T05:00:04;101035.25;;;15.26;75.78
76201;BME280;64981;52.930;9.266;2023-07-20T05:02:30;101010.91;;;15.14;75.94
76201;BME280;64981;52.930;9.266;2023-07-20T05:04:55;101021.56;;;15.29;75.56
76201;BME280;64981;52.930;9.266;2023-07-20T05:07:21;101038.63;;;15.34;75.41
76201;BME280;64981;52.930;9.266;2023-07-20T05:09:47;101040.09;;;15.37;75.17
76201;BME280;64981;52.930;9.266;2023-07-20T05:12:12;101021.38;;;15.30;75.31
76201;BME280;64981;52.930;9.266;2023-07-20T05:14:38;101037.25;;;15.38;75.05
76201;BME280;64981;52.930;9.266;2023-07-20T05:17:04;101040.63;;;15.32;75.44
76201;BME280;64981;52.930;9.266;2023-07-20T05:19:30;101038.72;;;15.41;74.68
76201;BME280;64981;52.930;9.266;2023-07-20T05:21:56;101020.16;;;15.47;73.90
76201;BME280;64981;52.930;9.266;2023-07-20T05:24:22;101031.88;;;15.53;74.37
76201;BME280;64981;52.930;9.266;2023-07-20T05:26:48;101030.91;;;15.39;74.76
76201;BME280;64981;52.930;9.266;2023-07-20T05:29:13;101014.00;;;15.32;74.56
76201;BME280;64981;52.930;9.266;2023-07-20T05:31:40;101042.63;;;15.45;74.68
76201;BME280;64981;52.930;9.266;2023-07-20T05:34:05;101034.47;;;15.46;74.61
76201;BME280;64981;52.930;9.266;2023-07-20T05:36:31;101048.41;;;15.63;74.48
76201;BME280;64981;52.930;9.266;2023-07-20T05:38:57;101050.69;;;15.66;74.19
76201;BME280;64981;52.930;9.266;2023-07-20T05:41:22;101050.81;;;15.79;73.92
76201;BME280;64981;52.930;9.266;2023-07-20T05:43:48;101052.00;;;15.77;74.21
76201;BME280;64981;52.930;9.266;2023-07-20T05:46:14;101043.84;;;15.78;74.04
76201;BME280;64981;52.930;9.266;2023-07-20T05:48:40;101046.31;;;15.80;74.23
76201;BME280;64981;52.930;9.266;2023-07-20T05:51:07;101042.88;;;15.86;73.69
76201;BME280;64981;52.930;9.266;2023-07-20T05:53:34;101051.78;;;15.93;73.41
76201;BME280;64981;52.930;9.266;2023-07-20T05:56:00;101063.28;;;15.93;73.64
76201;BME280;64981;52.930;9.266;2023-07-20T05:58:27;101049.75;;;15.95;73.43
76201;BME280;64981;52.930;9.266;2023-07-20T06:00:53;101038.09;;;15.96;73.11
76201;BME280;64981;52.930;9.266;2023-07-20T06:03:19;101057.34;;;16.12;72.86
76201;BME280;64981;52.930;9.266;2023-07-20T06:05:46;101061.31;;;16.23;72.77
76201;BME280;64981;52.930;9.266;2023-07-20T06:08:12;101050.63;;;16.38;72.45
76201;BME280;64981;52.930;9.266;2023-07-20T06:10:38;101058.75;;;16.57;71.23
76201;BME280;64981;52.930;9.266;2023-07-20T06:13:04;101053.91;;;16.67;70.94
76201;BME280;64981;52.930;9.266;2023-07-20T06:15:32;101061.19;;;16.80;70.50
76201;BME280;64981;52.930;9.266;2023-07-20T06:18:00;101068.34;;;16.80;70.76
76201;BME280;64981;52.930;9.266;2023-07-20T06:20:26;101072.53;;;16.89;70.14
76201;BME280;64981;52.930;9.266;2023-07-20T06:22:54;101070.81;;;17.02;69.41
76201;BME280;64981;52.930;9.266;2023-07-20T06:25:35;101069.91;;;16.95;69.67
76201;BME280;64981;52.930;9.266;2023-07-20T06:28:02;101076.19;;;17.09;68.44
76201;BME280;64981;52.930;9.266;2023-07-20T06:30:29;101059.50;;;17.00;68.47
76201;BME280;64981;52.930;9.266;2023-07-20T06:32:55;101071.31;;;17.19;68.70
76201;BME280;64981;52.930;9.266;2023-07-20T06:35:20;101073.81;;;17.27;67.16
76201;BME280;64981;52.930;9.266;2023-07-20T06:37:46;101060.69;;;17.26;67.43
76201;BME280;64981;52.930;9.266;2023-07-20T06:40:12;101081.13;;;17.53;66.69
76201;BME280;64981;52.930;9.266;2023-07-20T06:42:37;101081.75;;;17.55;65.32
76201;BME280;64981;52.930;9.266;2023-07-20T06:45:03;101071.31;;;17.60;65.12
76201;BME280;64981;52.930;9.266;2023-07-20T06:47:29;101066.41;;;17.70;65.34
76201;BME280;64981;52.930;9.266;2023-07-20T06:49:55;101072.59;;;17.84;64.51
76201;BME280;64981;52.930;9.266;2023-07-20T06:52:21;101063.75;;;17.83;65.09
76201;BME280;64981;52.930;9.266;2023-07-20T06:54:47;101080.88;;;17.89;64.49
76201;BME280;64981;52.930;9.266;2023-07-20T06:57:13;101073.97;;;18.14;62.82
76201;BME280;64981;52.930;9.266;2023-07-20T06:59:38;101051.47;;;17.89;63.21
76201;BME280;64981;52.930;9.266;2023-07-20T07:02:05;101079.50;;;18.12;63.46
76201;BME280;64981;52.930;9.266;2023-07-20T07:04:31;101074.59;;;18.29;61.29
76201;BME280;64981;52.930;9.266;2023-07-20T07:06:57;101080.13;;;18.27;61.71
76201;BME280;64981;52.930;9.266;2023-07-20T07:09:22;101053.41;;;18.34;60.78
76201;BME280;64981;52.930;9.266;2023-07-20T07:11:48;101073.34;;;18.25;60.29
76201;BME280;64981;52.930;9.266;2023-07-20T07:14:13;101071.31;;;18.40;59.53
76201;BME280;64981;52.930;9.266;2023-07-20T07:16:39;101086.31;;;18.35;60.05
76201;BME280;64981;52.930;9.266;2023-07-20T07:19:07;101070.06;;;18.43;58.52
76201;BME280;64981;52.930;9.266;2023-07-20T07:21:33;101072.13;;;18.54;57.93
76201;BME280;64981;52.930;9.266;2023-07-20T07:24:00;101073.38;;;18.45;56.96
76201;BME280;64981;52.930;9.266;2023-07-20T07:26:26;101070.06;;;18.30;56.33
76201;BME280;64981;52.930;9.266;2023-07-20T07:28:51;101075.63;;;18.35;56.70
76201;BME280;64981;52.930;9.266;2023-07-20T07:31:17;101086.28;;;18.21;58.13
76201;BME280;64981;52.930;9.266;2023-07-20T07:33:43;101077.06;;;18.37;57.96
76201;BME280;64981;52.930;9.266;2023-07-20T07:36:08;101071.13;;;18.48;56.83
76201;BME280;64981;52.930;9.266;2023-07-20T07:38:34;101071.91;;;18.49;56.55
76201;BME280;64981;52.930;9.266;2023-07-20T07:40:59;101075.22;;;18.44;55.84
76201;BME280;64981;52.930;9.266;2023-07-20T07:43:25;101071.72;;;18.63;54.59
76201;BME280;64981;52.930;9.266;2023-07-20T07:45:54;101088.78;;;18.62;55.08
76201;BME280;64981;52.930;9.266;2023-07-20T07:48:21;101091.88;;;18.72;56.62
76201;BME280;64981;52.930;9.266;2023-07-20T07:50:47;101086.56;;;18.86;55.47
76201;BME280;64981;52.930;9.266;2023-07-20T07:53:13;101102.22;;;18.82;54.26
76201;BME280;64981;52.930;9.266;2023-07-20T07:55:39;101102.00;;;18.77;54.54
76201;BME280;64981;52.930;9.266;2023-07-20T07:58:06;101096.84;;;18.89;55.00
76201;BME280;64981;52.930;9.266;2023-07-20T08:00:32;101098.06;;;18.93;55.03
76201;BME280;64981;52.930;9.266;2023-07-20T08:02:58;101102.41;;;18.94;53.15
76201;BME280;64981;52.930;9.266;2023-07-20T08:05:23;101098.06;;;18.86;55.26
76201;BME280;64981;52.930;9.266;2023-07-20T08:07:49;101111.66;;;18.98;54.08
76201;BME280;64981;52.930;9.266;2023-07-20T08:10:15;101107.56;;;18.95;54.30
76201;BME280;64981;52.930;9.266;2023-07-20T08:12:40;101109.81;;;18.98;53.70
76201;BME280;64981;52.930;9.266;2023-07-20T08:15:06;101102.78;;;19.17;53.25
76201;BME280;64981;52.930;9.266;2023-07-20T08:17:33;101106.06;;;19.19;53.26
76201;BME280;64981;52.930;9.266;2023-07-20T08:19:59;101108.13;;;19.17;52.06
76201;BME280;64981;52.930;9.266;2023-07-20T08:22:24;101107.28;;;19.23;51.95
76201;BME280;64981;52.930;9.266;2023-07-20T08:24:50;101100.09;;;19.23;50.20
76201;BME280;64981;52.930;9.266;2023-07-20T08:27:15;101104.34;;;19.44;49.15
76201;BME280;64981;52.930;9.266;2023-07-20T08:29:41;101108.72;;;19.32;48.77
76201;BME280;64981;52.930;9.266;2023-07-20T08:32:07;101101.53;;;19.19;49.92
76201;BME280;64981;52.930;9.266;2023-07-20T08:34:32;101113.22;;;19.45;50.40
76201;BME280;64981;52.930;9.266;2023-07-20T08:36:58;101119.84;;;19.29;51.40
76201;BME280;64981;52.930;9.266;2023-07-20T08:39:24;101117.00;;;19.17;50.83
76201;BME280;64981;52.930;9.266;2023-07-20T08:41:51;101128.50;;;19.18;51.09
76201;BME280;64981;52.930;9.266;2023-07-20T08:44:18;101112.22;;;19.26;50.82
76201;BME280;64981;52.930;9.266;2023-07-20T08:46:44;101126.03;;;19.23;50.23
76201;BME280;64981;52.930;9.266;2023-07-20T08:49:11;101115.94;;;19.18;49.58
76201;BME280;64981;52.930;9.266;2023-07-20T08:51:37;101116.94;;;19.30;48.97
76201;BME280;64981;52.930;9.266;2023-07-20T08:54:06;101111.56;;;19.37;48.72
76201;BME280;64981;52.930;9.266;2023-07-20T08:56:33;101106.63;;;19.41;49.04
76201;BME280;64981;52.930;9.266;2023-07-20T08:59:02;101127.59;;;19.50;48.37
76201;BME280;64981;52.930;9.266;2023-07-20T09:01:28;101122.44;;;19.55;47.19
76201;BME280;64981;52.930;9.266;2023-07-20T09:03:56;101125.34;;;19.60;47.53
76201;BME280;64981;52.930;9.266;2023-07-20T09:06:22;101118.13;;;19.61;49.21
76201;BME280;64981;52.930;9.266;2023-07-20T09:08:48;101121.22;;;19.58;49.22
76201;BME280;64981;52.930;9.266;2023-07-20T09:11:14;101131.72;;;19.53;48.63
76201;BME280;64981;52.930;9.266;2023-07-20T09:13:40;101104.34;;;19.38;48.21
76201;BME280;64981;52.930;9.266;2023-07-20T09:16:06;101127.59;;;19.50;48.50
76201;BME280;64981;52.930;9.266;2023-07-20T09:18:32;101122.25;;;19.63;48.96
76201;BME280;64981;52.930;9.266;2023-07-20T09:21:04;101123.00;;;19.77;47.50
76201;BME280;64981;52.930;9.266;2023-07-20T09:23:33;101109.66;;;19.70;48.14
76201;BME280;64981;52.930;9.266;2023-07-20T09:25:59;101104.66;;;19.74;47.54
76201;BME280;64981;52.930;9.266;2023-07-20T09:28:26;101121.84;;;20.04;48.85
76201;BME280;64981;52.930;9.266;2023-07-20T09:30:54;101116.97;;;20.26;47.86
76201;BME280;64981;52.930;9.266;2023-07-20T09:33:22;101100.19;;;19.99;47.26
76201;BME280;64981;52.930;9.266;2023-07-20T09:35:48;101121.78;;;20.17;47.87
76201;BME280;64981;52.930;9.266;2023-07-20T09:38:15;101115.97;;;20.20;48.20
76201;BME280;64981;52.930;9.266;2023-07-20T09:40:41;101122.06;;;20.34;48.32
76201;BME280;64981;52.930;9.266;2023-07-20T09:43:08;101132.22;;;20.25;47.97
76201;BME280;64981;52.930;9.266;2023-07-20T09:45:39;101114.06;;;20.59;44.18
76201;BME280;64981;52.930;9.266;2023-07-20T09:48:07;101104.63;;;20.50;45.53
76201;BME280;64981;52.930;9.266;2023-07-20T09:50:33;101117.75;;;20.64;44.94
76201;BME280;64981;52.930;9.266;2023-07-20T09:53:01;101113.38;;;20.70;45.35
76201;BME280;64981;52.930;9.266;2023-07-20T09:55:29;101105.97;;;20.65;46.48
76201;BME280;64981;52.930;9.266;2023-07-20T09:57:56;101114.75;;;20.97;43.69
76201;BME280;64981;52.930;9.266;2023-07-20T10:00:22;101115.31;;;20.81;44.58
76201;BME280;64981;52.930;9.266;2023-07-20T10:02:51;101112.88;;;20.79;43.95
76201;BME280;64981;52.930;9.266;2023-07-20T10:05:19;101111.22;;;20.78;45.31
76201;BME280;64981;52.930;9.266;2023-07-20T10:07:48;101109.56;;;20.77;45.38
76201;BME280;64981;52.930;9.266;2023-07-20T10:10:16;101111.56;;;20.88;42.88
76201;BME280;64981;52.930;9.266;2023-07-20T10:12:44;101115.66;;;20.91;44.59
76201;BME280;64981;52.930;9.266;2023-07-20T10:15:19;101102.72;;;20.81;44.05
76201;BME280;64981;52.930;9.266;2023-07-20T10:17:57;101112.38;;;20.89;44.28
76201;BME280;64981;52.930;9.266;2023-07-20T10:20:24;101111.28;;;20.72;45.80
76201;BME280;64981;52.930;9.266;2023-07-20T10:22:53;101109.94;;;20.81;44.65
76201;BME280;64981;52.930;9.266;2023-07-20T10:25:22;101104.09;;;20.90;43.88
76201;BME280;64981;52.930;9.266;2023-07-20T10:27:48;101092.19;;;21.05;42.70
76201;BME280;64981;52.930;9.266;2023-07-20T10:30:14;101104.91;;;21.16;41.41
76201;BME280;64981;52.930;9.266;2023-07-20T10:32:42;101091.97;;;20.81;41.48
76201;BME280;64981;52.930;9.266;2023-07-20T10:35:16;101101.84;;;20.87;42.06
76201;BME280;64981;52.930;9.266;2023-07-20T10:38:01;101096.84;;;20.91;42.76
76201;BME280;64981;52.930;9.266;2023-07-20T10:40:32;101098.84;;;21.02;42.46
76201;BME280;64981;52.930;9.266;2023-07-20T10:43:01;101093.28;;;20.97;42.69
76201;BME280;64981;52.930;9.266;2023-07-20T10:45:42;101088.94;;;20.96;40.61
76201;BME280;64981;52.930;9.266;2023-07-20T10:48:16;101091.34;;;21.04;41.08
76201;BME280;64981;52.930;9.266;2023-07-20T10:50:43;101088.69;;;21.04;40.64
76201;BME280;64981;52.930;9.266;2023-07-20T10:53:12;101089.94;;;21.02;41.11
76201;BME280;64981;52.930;9.266;2023-07-20T10:55:39;101090.66;;;21.15;40.29
76201;BME280;64981;52.930;9.266;2023-07-20T10:58:08;101098.25;;;21.18;41.84
76201;BME280;64981;52.930;9.266;2023-07-20T11:00:35;101088.50;;;21.24;41.26
76201;BME280;64981;52.930;9.266;2023-07-20T11:03:01;101091.25;;;21.17;41.58
76201;BME280;64981;52.930;9.266;2023-07-20T11:05:37;101093.13;;;21.35;41.65
76201;BME280;64981;52.930;9.266;2023-07-20T11:08:05;101090.75;;;21.27;41.46
76201;BME280;64981;52.930;9.266;2023-07-20T11:10:32;101120.06;;;21.28;43.29
76201;BME280;64981;52.930;9.266;2023-07-20T11:13:18;101123.44;;;20.74;46.56
76201;BME280;64981;52.930;9.266;2023-07-20T11:16:02;101144.75;;;20.38;48.60
76201;BME280;64981;52.930;9.266;2023-07-20T11:18:29;101146.94;;;19.72;51.88
76201;BME280;64981;52.930;9.266;2023-07-20T11:20:56;101162.09;;;19.98;52.40
76201;BME280;64981;52.930;9.266;2023-07-20T11:23:22;101160.13;;;19.80;54.41
76201;BME280;64981;52.930;9.266;2023-07-20T11:25:50;101152.34;;;19.46;56.91
76201;BME280;64981;52.930;9.266;2023-07-20T11:28:16;101161.63;;;19.37;58.09
76201;BME280;64981;52.930;9.266;2023-07-20T11:30:41;101162.72;;;19.22;58.86
76201;BME280;64981;52.930;9.266;2023-07-20T11:33:09;101157.16;;;19.17;58.24
76201;BME280;64981;52.930;9.266;2023-07-20T11:35:41;101141.53;;;18.95;59.13
76201;BME280;64981;52.930;9.266;2023-07-20T11:38:08;101156.13;;;19.12;58.43
76201;BME280;64981;52.930;9.266;2023-07-20T11:40:33;101134.75;;;18.86;58.05
76201;BME280;64981;52.930;9.266;2023-07-20T11:43:00;101152.00;;;19.03;58.47
76201;BME280;64981;52.930;9.266;2023-07-20T11:45:26;101134.09;;;19.10;58.77
76201;BME280;64981;52.930;9.266;2023-07-20T11:47:53;101143.38;;;19.07;58.75
76201;BME280;64981;52.930;9.266;2023-07-20T11:50:18;101140.88;;;19.25;57.82
76201;BME280;64981;52.930;9.266;2023-07-20T11:52:44;101137.75;;;19.42;57.43
76201;BME280;64981;52.930;9.266;2023-07-20T11:55:11;101118.53;;;19.58;57.76
76201;BME280;64981;52.930;9.266;2023-07-20T11:57:37;101132.94;;;19.70;56.64
76201;BME280;64981;52.930;9.266;2023-07-20T12:00:04;101129.16;;;19.84;54.81
76201;BME280;64981;52.930;9.266;2023-07-20T12:02:37;101108.00;;;19.69;52.42
76201;BME280;64981;52.930;9.266;2023-07-20T12:05:05;101122.84;;;20.10;51.45
76201;BME280;64981;52.930;9.266;2023-07-20T12:07:35;101124.78;;;20.27;50.53
76201;BME280;64981;52.930;9.266;2023-07-20T12:10:06;101112.66;;;20.18;49.35
76201;BME280;64981;52.930;9.266;2023-07-20T12:12:34;101116.38;;;20.24;49.41
76201;BME280;64981;52.930;9.266;2023-07-20T12:15:12;101125.25;;;20.18;46.28
76201;BME280;64981;52.930;9.266;2023-07-20T12:17:44;101096.53;;;20.25;47.87
76201;BME280;64981;52.930;9.266;2023-07-20T12:20:11;101117.84;;;20.51;46.84
76201;BME280;64981;52.930;9.266;2023-07-20T12:22:40;101112.81;;;20.61;48.60
76201;BME280;64981;52.930;9.266;2023-07-20T12:25:08;101101.06;;;20.80;47.08
76201;BME280;64981;52.930;9.266;2023-07-20T12:27:36;101100.56;;;20.90;47.14
76201;BME280;64981;52.930;9.266;2023-07-20T12:30:04;101106.88;;;21.27;45.31
76201;BME280;64981;52.930;9.266;2023-07-20T12:32:30;101091.06;;;21.12;46.04
76201;BME280;64981;52.930;9.266;2023-07-20T12:34:55;101095.81;;;21.35;45.51
76201;BME280;64981;52.930;9.266;2023-07-20T12:37:22;101112.81;;;21.29;45.88
76201;BME280;64981;52.930;9.266;2023-07-20T12:39:47;101108.22;;;21.36;45.84
76201;BME280;64981;52.930;9.266;2023-07-20T12:42:13;101106.94;;;21.38;44.92
76201;BME280;64981;52.930;9.266;2023-07-20T12:44:40;101104.00;;;21.40;44.97
76201;BME280;64981;52.930;9.266;2023-07-20T12:47:06;101107.31;;;21.42;43.27
76201;BME280;64981;52.930;9.266;2023-07-20T12:49:32;101071.47;;;21.48;42.89
76201;BME280;64981;52.930;9.266;2023-07-20T12:51:58;101106.97;;;21.86;42.61
76201;BME280;64981;52.930;9.266;2023-07-20T12:54:24;101117.44;;;21.76;44.02
76201;BME280;64981;52.930;9.266;2023-07-20T12:56:49;101112.81;;;21.65;43.56